sensor_id;sensor_type;location;lat;lon;timestamp;P1;durP1;ratioP1;P2;durP2;ratioP2
63965;SDS011;50151;52.030;5.350;2023-04-06T05:45:22;21.92;;;10.95;;
63965;SDS011;50151;52.030;5.350;2023-04-06T05:47:49;21.15;;;11.73;;
63965;SDS011;50151;52.030;5.350;2023-04-06T05:50:15;22.17;;;11.48;;
63965;SDS011;50151;52.030;5.350;2023-04-06T05:52:42;31.58;;;12.43;;
63965;SDS011;50151;52.030;5.350;2023-04-06T05:55:11;20.65;;;11.82;;
63965;SDS011;50151;52.030;5.350;2023-04-06T05:57:38;22.08;;;12.13;;
63965;SDS011;50151;52.030;5.350;2023-04-06T06:00:05;25.52;;;12.05;;
63965;SDS011;50151;52.030;5.350;2023-04-06T06:02:36;22.70;;;12.07;;
63965;SDS011;50151;52.030;5.350;2023-04-06T06:05:08;23.52;;;12.27;;
63965;SDS011;50151;52.030;5.350;2023-04-06T06:07:36;25.90;;;12.05;;
63965;SDS011;50151;52.030;5.350;2023-04-06T06:10:03;20.92;;;12.05;;
63965;SDS011;50151;52.030;5.350;2023-04-06T06:12:30;23.17;;;12.70;;
63965;SDS011;50151;52.030;5.350;2023-04-06T06:14:56;22.23;;;12.75;;
63965;SDS011;50151;52.030;5.350;2023-04-06T06:17:23;33.75;;;13.25;;
63965;SDS011;50151;52.030;5.350;2023-04-06T06:19:50;21.25;;;12.77;;
63965;SDS011;50151;52.030;5.350;2023-04-06T06:22:16;27.55;;;13.63;;
63965;SDS011;50151;52.030;5.350;2023-04-06T06:24:43;25.83;;;12.63;;
63965;SDS011;50151;52.030;5.350;2023-04-06T06:27:10;20.35;;;12.95;;
63965;SDS011;50151;52.030;5.350;2023-04-06T06:29:36;22.15;;;12.80;;
63965;SDS011;50151;52.030;5.350;2023-04-06T06:32:03;22.55;;;12.90;;
63965;SDS011;50151;52.030;5.350;2023-04-06T06:34:30;25.95;;;12.90;;
63965;SDS011;50151;52.030;5.350;2023-04-06T06:36:57;22.08;;;13.45;;
63965;SDS011;50151;52.030;5.350;2023-04-06T06:39:23;22.08;;;12.70;;
63965;SDS011;50151;52.030;5.350;2023-04-06T06:41:51;26.10;;;13.07;;
63965;SDS011;50151;52.030;5.350;2023-04-06T06:44:17;26.23;;;14.27;;
63965;SDS011;50151;52.030;5.350;2023-04-06T06:46:44;26.48;;;13.27;;
63965;SDS011;50151;52.030;5.350;2023-04-06T06:49:11;27.42;;;13.63;;
63965;SDS011;50151;52.030;5.350;2023-04-06T06:51:38;25.25;;;13.25;;
63965;SDS011;50151;52.030;5.350;2023-04-06T06:54:05;27.83;;;13.80;;
63965;SDS011;50151;52.030;5.350;2023-04-06T06:56:32;26.33;;;13.43;;
63965;SDS011;50151;52.030;5.350;2023-04-06T06:58:59;24.90;;;14.00;;
63965;SDS011;50151;52.030;5.350;2023-04-06T07:01:25;24.88;;;13.73;;
63965;SDS011;50151;52.030;5.350;2023-04-06T07:03:52;21.45;;;13.55;;
63965;SDS011;50151;52.030;5.350;2023-04-06T07:06:19;21.73;;;14.00;;
63965;SDS011;50151;52.030;5.350;2023-04-06T07:08:46;22.98;;;13.05;;
63965;SDS011;50151;52.030;5.350;2023-04-06T07:11:13;27.10;;;14.43;;
63965;SDS011;50151;52.030;5.350;2023-04-06T07:13:39;23.35;;;13.85;;
63965;SDS011;50151;52.030;5.350;2023-04-06T07:16:06;25.05;;;15.30;;
63965;SDS011;50151;52.030;5.350;2023-04-06T07:18:33;23.75;;;14.30;;
63965;SDS011;50151;52.030;5.350;2023-04-06T07:21:01;21.50;;;13.75;;
63965;SDS011;50151;52.030;5.350;2023-04-06T07:23:28;24.20;;;14.00;;
63965;SDS011;50151;52.030;5.350;2023-04-06T07:25:55;22.70;;;13.98;;
63965;SDS011;50151;52.030;5.350;2023-04-06T07:28:21;23.60;;;15.25;;
63965;SDS011;50151;52.030;5.350;2023-04-06T07:30:48;24.80;;;14.70;;
63965;SDS011;50151;52.030;5.350;2023-04-06T07:33:15;23.48;;;14.05;;
63965;SDS011;50151;52.030;5.350;2023-04-06T07:35:42;23.13;;;14.40;;
63965;SDS011;50151;52.030;5.350;2023-04-06T07:38:08;26.15;;;14.32;;
63965;SDS011;50151;52.030;5.350;2023-04-06T07:40:35;22.45;;;14.38;;
63965;SDS011;50151;52.030;5.350;2023-04-06T07:43:02;27.10;;;14.48;;
63965;SDS011;50151;52.030;5.350;2023-04-06T07:45:29;23.42;;;14.77;;
63965;SDS011;50151;52.030;5.350;2023-04-06T07:47:56;27.88;;;14.55;;
63965;SDS011;50151;52.030;5.350;2023-04-06T07:50:22;27.00;;;14.90;;
63965;SDS011;50151;52.030;5.350;2023-04-06T07:52:49;24.17;;;15.25;;
63965;SDS011;50151;52.030;5.350;2023-04-06T07:55:16;28.83;;;15.05;;
63965;SDS011;50151;52.030;5.350;2023-04-06T07:57:42;26.70;;;15.00;;
63965;SDS011;50151;52.030;5.350;2023-04-06T08:00:09;25.40;;;15.13;;
63965;SDS011;50151;52.030;5.350;2023-04-06T08:02:36;23.48;;;13.43;;
63965;SDS011;50151;52.030;5.350;2023-04-06T08:05:03;26.55;;;13.90;;
63965;SDS011;50151;52.030;5.350;2023-04-06T08:07:30;31.95;;;15.25;;
63965;SDS011;50151;52.030;5.350;2023-04-06T08:09:57;24.58;;;14.80;;
63965;SDS011;50151;52.030;5.350;2023-04-06T08:12:23;25.52;;;13.98;;
63965;SDS011;50151;52.030;5.350;2023-04-06T08:14:50;30.45;;;15.57;;
63965;SDS011;50151;52.030;5.350;2023-04-06T08:17:17;29.40;;;15.52;;
63965;SDS011;50151;52.030;5.350;2023-04-06T08:19:43;25.35;;;13.90;;
63965;SDS011;50151;52.030;5.350;2023-04-06T08:22:10;30.38;;;15.50;;
63965;SDS011;50151;52.030;5.350;2023-04-06T08:24:37;24.17;;;15.25;;
63965;SDS011;50151;52.030;5.350;2023-04-06T08:27:04;22.75;;;14.75;;
63965;SDS011;50151;52.030;5.350;2023-04-06T08:29:31;29.35;;;15.25;;
63965;SDS011;50151;52.030;5.350;2023-04-06T08:31:58;24.70;;;14.95;;
63965;SDS011;50151;52.030;5.350;2023-04-06T08:34:25;30.23;;;16.38;;
63965;SDS011;50151;52.030;5.350;2023-04-06T08:36:51;28.75;;;15.15;;
63965;SDS011;50151;52.030;5.350;2023-04-06T08:39:21;23.33;;;14.60;;
63965;SDS011;50151;52.030;5.350;2023-04-06T08:41:52;31.70;;;15.15;;
63965;SDS011;50151;52.030;5.350;2023-04-06T08:44:19;28.63;;;15.10;;
63965;SDS011;50151;52.030;5.350;2023-04-06T08:46:46;27.58;;;15.68;;
63965;SDS011;50151;52.030;5.350;2023-04-06T08:49:22;27.98;;;15.43;;
63965;SDS011;50151;52.030;5.350;2023-04-06T08:51:49;28.50;;;15.90;;
63965;SDS011;50151;52.030;5.350;2023-04-06T08:54:17;25.92;;;15.85;;
63965;SDS011;50151;52.030;5.350;2023-04-06T08:56:43;26.15;;;15.57;;
63965;SDS011;50151;52.030;5.350;2023-04-06T08:59:11;29.08;;;15.13;;
63965;SDS011;50151;52.030;5.350;2023-04-06T09:01:39;28.45;;;15.80;;
63965;SDS011;50151;52.030;5.350;2023-04-06T09:04:09;25.95;;;15.38;;
63965;SDS011;50151;52.030;5.350;2023-04-06T09:06:38;24.02;;;15.15;;
63965;SDS011;50151;52.030;5.350;2023-04-06T09:09:06;23.30;;;14.75;;
63965;SDS011;50151;52.030;5.350;2023-04-06T09:11:43;26.50;;;16.10;;
63965;SDS011;50151;52.030;5.350;2023-04-06T09:14:13;31.52;;;15.00;;
63965;SDS011;50151;52.030;5.350;2023-04-06T09:16:42;36.35;;;15.68;;
63965;SDS011;50151;52.030;5.350;2023-04-06T09:19:11;26.52;;;15.70;;
63965;SDS011;50151;52.030;5.350;2023-04-06T09:21:38;27.80;;;16.77;;
63965;SDS011;50151;52.030;5.350;2023-04-06T09:24:06;30.50;;;16.60;;
63965;SDS011;50151;52.030;5.350;2023-04-06T09:26:43;26.55;;;15.70;;
63965;SDS011;50151;52.030;5.350;2023-04-06T09:29:22;30.20;;;16.77;;
63965;SDS011;50151;52.030;5.350;2023-04-06T09:31:50;32.67;;;15.77;;
63965;SDS011;50151;52.030;5.350;2023-04-06T09:34:21;34.05;;;17.02;;
63965;SDS011;50151;52.030;5.350;2023-04-06T09:36:49;28.73;;;16.63;;
63965;SDS011;50151;52.030;5.350;2023-04-06T09:39:20;33.95;;;16.77;;
63965;SDS011;50151;52.030;5.350;2023-04-06T09:41:51;28.50;;;16.02;;
63965;SDS011;50151;52.030;5.350;2023-04-06T09:44:19;37.20;;;17.10;;
63965;SDS011;50151;52.030;5.350;2023-04-06T09:46:46;29.67;;;16.25;;
63965;SDS011;50151;52.030;5.350;2023-04-06T09:49:30;30.02;;;16.80;;
63965;SDS011;50151;52.030;5.350;2023-04-06T09:51:59;33.35;;;16.95;;
63965;SDS011;50151;52.030;5.350;2023-04-06T09:54:29;32.85;;;17.23;;
63965;SDS011;50151;52.030;5.350;2023-04-06T09:57:06;30.33;;;16.17;;
63965;SDS011;50151;52.030;5.350;2023-04-06T09:59:43;36.95;;;16.55;;
63965;SDS011;50151;52.030;5.350;2023-04-06T10:05:05;31.40;;;16.33;;
63965;SDS011;50151;52.030;5.350;2023-04-06T10:07:35;27.05;;;12.13;;
63965;SDS011;50151;52.030;5.350;2023-04-06T10:10:14;23.02;;;13.90;;
63965;SDS011;50151;52.030;5.350;2023-04-06T10:12:41;26.45;;;14.07;;
63965;SDS011;50151;52.030;5.350;2023-04-06T10:15:11;27.48;;;14.88;;
63965;SDS011;50151;52.030;5.350;2023-04-06T10:17:37;25.70;;;12.60;;
63965;SDS011;50151;52.030;5.350;2023-04-06T10:22:43;17.67;;;10.25;;
63965;SDS011;50151;52.030;5.350;2023-04-06T10:25:30;18.95;;;9.60;;
63965;SDS011;50151;52.030;5.350;2023-04-06T10:28:07;15.57;;;8.82;;
63965;SDS011;50151;52.030;5.350;2023-04-06T10:30:41;11.38;;;7.55;;
63965;SDS011;50151;52.030;5.350;2023-04-06T10:33:13;13.40;;;7.70;;
63965;SDS011;50151;52.030;5.350;2023-04-06T10:35:41;12.40;;;6.80;;
63965;SDS011;50151;52.030;5.350;2023-04-06T10:38:08;10.60;;;6.90;;
63965;SDS011;50151;52.030;5.350;2023-04-06T10:40:36;11.57;;;7.00;;
63965;SDS011;50151;52.030;5.350;2023-04-06T10:43:11;12.35;;;6.57;;
63965;SDS011;50151;52.030;5.350;2023-04-06T10:45:40;11.27;;;6.00;;
63965;SDS011;50151;52.030;5.350;2023-04-06T10:48:15;9.10;;;5.63;;
63965;SDS011;50151;52.030;5.350;2023-04-06T10:50:43;7.40;;;4.43;;
63965;SDS011;50151;52.030;5.350;2023-04-06T10:53:20;8.40;;;5.88;;
63965;SDS011;50151;52.030;5.350;2023-04-06T10:55:51;8.10;;;5.13;;
63965;SDS011;50151;52.030;5.350;2023-04-06T10:58:26;7.18;;;4.40;;
63965;SDS011;50151;52.030;5.350;2023-04-06T11:00:53;7.50;;;4.75;;
63965;SDS011;50151;52.030;5.350;2023-04-06T11:03:23;7.47;;;4.45;;
63965;SDS011;50151;52.030;5.350;2023-04-06T11:05:50;8.00;;;4.50;;
63965;SDS011;50151;52.030;5.350;2023-04-06T11:13:43;6.93;;;4.40;;
63965;SDS011;50151;52.030;5.350;2023-04-06T11:16:18;8.00;;;4.88;;
63965;SDS011;50151;52.030;5.350;2023-04-06T11:18:50;9.27;;;4.95;;
63965;SDS011;50151;52.030;5.350;2023-04-06T11:21:35;7.53;;;4.68;;
63965;SDS011;50151;52.030;5.350;2023-04-06T11:29:11;8.02;;;4.68;;
63965;SDS011;50151;52.030;5.350;2023-04-06T11:31:39;7.07;;;4.55;;
63965;SDS011;50151;52.030;5.350;2023-04-06T11:34:11;6.50;;;4.18;;
63965;SDS011;50151;52.030;5.350;2023-04-06T11:36:58;7.47;;;3.80;;
63965;SDS011;50151;52.030;5.350;2023-04-06T11:39:31;7.45;;;4.68;;
63965;SDS011;50151;52.030;5.350;2023-04-06T11:42:03;5.80;;;3.95;;
63965;SDS011;50151;52.030;5.350;2023-04-06T11:44:37;10.93;;;5.22;;
63965;SDS011;50151;52.030;5.350;2023-04-06T11:47:06;8.00;;;4.60;;
63965;SDS011;50151;52.030;5.350;2023-04-06T11:49:36;9.60;;;4.82;;
63965;SDS011;50151;52.030;5.350;2023-04-06T11:52:14;9.18;;;5.65;;
63965;SDS011;50151;52.030;5.350;2023-04-06T11:54:41;8.93;;;5.18;;
63965;SDS011;50151;52.030;5.350;2023-04-06T11:57:08;12.50;;;5.60;;
63965;SDS011;50151;52.030;5.350;2023-04-06T11:59:35;8.45;;;5.57;;
63965;SDS011;50151;52.030;5.350;2023-04-06T12:02:02;7.70;;;5.38;;
63965;SDS011;50151;52.030;5.350;2023-04-06T12:04:29;8.00;;;5.55;;
63965;SDS011;50151;52.030;5.350;2023-04-06T12:06:56;8.68;;;5.43;;
63965;SDS011;50151;52.030;5.350;2023-04-06T12:09:24;8.77;;;6.10;;
63965;SDS011;50151;52.030;5.350;2023-04-06T12:11:50;8.63;;;5.97;;
63965;SDS011;50151;52.030;5.350;2023-04-06T12:14:17;12.98;;;7.18;;
63965;SDS011;50151;52.030;5.350;2023-04-06T12:16:44;13.70;;;5.88;;
63965;SDS011;50151;52.030;5.350;2023-04-06T12:19:10;10.73;;;6.00;;
63965;SDS011;50151;52.030;5.350;2023-04-06T12:21:37;10.57;;;5.82;;
63965;SDS011;50151;52.030;5.350;2023-04-06T12:24:04;10.23;;;7.15;;
63965;SDS011;50151;52.030;5.350;2023-04-06T12:26:32;9.35;;;6.78;;
63965;SDS011;50151;52.030;5.350;2023-04-06T12:28:59;14.63;;;7.20;;
63965;SDS011;50151;52.030;5.350;2023-04-06T12:31:36;9.75;;;6.78;;
63965;SDS011;50151;52.030;5.350;2023-04-06T12:34:09;10.25;;;6.93;;
63965;SDS011;50151;52.030;5.350;2023-04-06T12:36:36;10.60;;;6.45;;
63965;SDS011;50151;52.030;5.350;2023-04-06T12:39:04;12.98;;;7.28;;
63965;SDS011;50151;52.030;5.350;2023-04-06T12:41:31;10.65;;;7.57;;
63965;SDS011;50151;52.030;5.350;2023-04-06T12:43:58;9.40;;;5.88;;
63965;SDS011;50151;52.030;5.350;2023-04-06T12:46:26;11.65;;;6.35;;
63965;SDS011;50151;52.030;5.350;2023-04-06T12:48:52;10.82;;;7.07;;
63965;SDS011;50151;52.030;5.350;2023-04-06T12:51:20;10.57;;;6.38;;
63965;SDS011;50151;52.030;5.350;2023-04-06T12:53:46;10.45;;;6.95;;
63965;SDS011;50151;52.030;5.350;2023-04-06T12:56:14;10.95;;;7.10;;
63965;SDS011;50151;52.030;5.350;2023-04-06T12:58:43;10.02;;;5.88;;
63965;SDS011;50151;52.030;5.350;2023-04-06T13:01:11;10.77;;;6.90;;
63965;SDS011;50151;52.030;5.350;2023-04-06T13:03:41;10.80;;;6.75;;
63965;SDS011;50151;52.030;5.350;2023-04-06T13:06:08;9.98;;;6.53;;
63965;SDS011;50151;52.030;5.350;2023-04-06T13:08:36;11.38;;;6.03;;
63965;SDS011;50151;52.030;5.350;2023-04-06T13:11:04;10.15;;;6.30;;
63965;SDS011;50151;52.030;5.350;2023-04-06T13:13:31;10.68;;;6.88;;
63965;SDS011;50151;52.030;5.350;2023-04-06T13:16:02;11.13;;;7.10;;
63965;SDS011;50151;52.030;5.350;2023-04-06T13:18:31;10.63;;;6.65;;
63965;SDS011;50151;52.030;5.350;2023-04-06T13:20:58;10.32;;;6.90;;
63965;SDS011;50151;52.030;5.350;2023-04-06T13:23:27;9.88;;;6.43;;
63965;SDS011;50151;52.030;5.350;2023-04-06T13:26:01;9.85;;;5.97;;
63965;SDS011;50151;52.030;5.350;2023-04-06T13:28:29;9.27;;;5.72;;
63965;SDS011;50151;52.030;5.350;2023-04-06T13:30:58;8.88;;;6.18;;
63965;SDS011;50151;52.030;5.350;2023-04-06T13:33:25;8.05;;;5.90;;
63965;SDS011;50151;52.030;5.350;2023-04-06T13:35:52;11.30;;;6.82;;
63965;SDS011;50151;52.030;5.350;2023-04-06T13:38:19;9.68;;;6.47;;
63965;SDS011;50151;52.030;5.350;2023-04-06T13:40:46;11.10;;;7.03;;
63965;SDS011;50151;52.030;5.350;2023-04-06T13:43:13;11.93;;;6.93;;
63965;SDS011;50151;52.030;5.350;2023-04-06T13:45:40;11.85;;;7.15;;
63965;SDS011;50151;52.030;5.350;2023-04-06T13:48:07;10.32;;;6.97;;
63965;SDS011;50151;52.030;5.350;2023-04-06T13:50:34;11.00;;;6.70;;
63965;SDS011;50151;52.030;5.350;2023-04-06T13:53:01;12.43;;;7.30;;
63965;SDS011;50151;52.030;5.350;2023-04-06T13:55:27;10.63;;;6.47;;
63965;SDS011;50151;52.030;5.350;2023-04-06T13:57:54;10.55;;;6.68;;
63965;SDS011;50151;52.030;5.350;2023-04-06T14:00:21;10.60;;;7.32;;
63965;SDS011;50151;52.030;5.350;2023-04-06T14:02:48;12.77;;;6.93;;
63965;SDS011;50151;52.030;5.350;2023-04-06T14:05:15;12.18;;;7.07;;
63965;SDS011;50151;52.030;5.350;2023-04-06T14:07:42;9.90;;;6.88;;
63965;SDS011;50151;52.030;5.350;2023-04-06T14:10:08;12.35;;;7.07;;
63965;SDS011;50151;52.030;5.350;2023-04-06T14:12:43;10.13;;;7.05;;
63965;SDS011;50151;52.030;5.350;2023-04-06T14:15:11;10.60;;;6.72;;
63965;SDS011;50151;52.030;5.350;2023-04-06T14:17:38;9.75;;;6.97;;
63965;SDS011;50151;52.030;5.350;2023-04-06T14:20:06;12.57;;;6.45;;
63965;SDS011;50151;52.030;5.350;2023-04-06T14:22:33;11.40;;;6.10;;
63965;SDS011;50151;52.030;5.350;2023-04-06T14:25:00;9.32;;;6.15;;
63965;SDS011;50151;52.030;5.350;2023-04-06T14:27:26;10.23;;;6.70;;
63965;SDS011;50151;52.030;5.350;2023-04-06T14:29:53;9.10;;;6.72;;
63965;SDS011;50151;52.030;5.350;2023-04-06T14:32:20;12.50;;;6.90;;
63965;SDS011;50151;52.030;5.350;2023-04-06T14:34:47;9.13;;;6.32;;
63965;SDS011;50151;52.030;5.350;2023-04-06T14:37:14;10.60;;;7.40;;
63965;SDS011;50151;52.030;5.350;2023-04-06T14:39:41;10.93;;;7.18;;
63965;SDS011;50151;52.030;5.350;2023-04-06T14:42:07;9.48;;;6.35;;
63965;SDS011;50151;52.030;5.350;2023-04-06T14:44:34;9.35;;;6.50;;
63965;SDS011;50151;52.030;5.350;2023-04-06T14:47:02;11.88;;;6.60;;
63965;SDS011;50151;52.030;5.350;2023-04-06T14:49:32;11.05;;;6.68;;
63965;SDS011;50151;52.030;5.350;2023-04-06T14:51:59;11.30;;;7.03;;
63965;SDS011;50151;52.030;5.350;2023-04-06T14:54:26;10.38;;;6.50;;
63965;SDS011;50151;52.030;5.350;2023-04-06T14:56:52;11.20;;;6.82;;
63965;SDS011;50151;52.030;5.350;2023-04-06T14:59:19;13.20;;;7.57;;
63965;SDS011;50151;52.030;5.350;2023-04-06T15:01:46;11.25;;;6.68;;
63965;SDS011;50151;52.030;5.350;2023-04-06T15:04:13;10.50;;;7.35;;
63965;SDS011;50151;52.030;5.350;2023-04-06T15:06:40;8.43;;;6.13;;
63965;SDS011;50151;52.030;5.350;2023-04-06T15:09:07;11.93;;;7.25;;
63965;SDS011;50151;52.030;5.350;2023-04-06T15:11:33;11.18;;;6.63;;
63965;SDS011;50151;52.030;5.350;2023-04-06T15:14:00;10.57;;;6.68;;
63965;SDS011;50151;52.030;5.350;2023-04-06T15:16:28;10.70;;;7.10;;
63965;SDS011;50151;52.030;5.350;2023-04-06T15:18:59;9.90;;;6.43;;
63965;SDS011;50151;52.030;5.350;2023-04-06T15:21:26;9.68;;;6.57;;
63965;SDS011;50151;52.030;5.350;2023-04-06T15:23:53;10.57;;;6.65;;
63965;SDS011;50151;52.030;5.350;2023-04-06T15:26:20;9.98;;;6.43;;
63965;SDS011;50151;52.030;5.350;2023-04-06T15:28:47;11.98;;;6.70;;
63965;SDS011;50151;52.030;5.350;2023-04-06T15:31:14;9.07;;;5.88;;
63965;SDS011;50151;52.030;5.350;2023-04-06T15:34:03;10.05;;;6.03;;
63965;SDS011;50151;52.030;5.350;2023-04-06T15:36:30;12.07;;;7.20;;
63965;SDS011;50151;52.030;5.350;2023-04-06T15:38:57;8.98;;;6.28;;
63965;SDS011;50151;52.030;5.350;2023-04-06T15:41:24;9.82;;;5.80;;
63965;SDS011;50151;52.030;5.350;2023-04-06T15:43:54;9.60;;;6.28;;
63965;SDS011;50151;52.030;5.350;2023-04-06T15:46:22;7.72;;;5.30;;
63965;SDS011;50151;52.030;5.350;2023-04-06T15:48:49;6.63;;;5.55;;
63965;SDS011;50151;52.030;5.350;2023-04-06T15:51:16;7.40;;;5.80;;
63965;SDS011;50151;52.030;5.350;2023-04-06T15:53:43;9.35;;;5.32;;
63965;SDS011;50151;52.030;5.350;2023-04-06T15:56:10;7.80;;;5.75;;
63965;SDS011;50151;52.030;5.350;2023-04-06T15:58:39;8.93;;;6.45;;
63965;SDS011;50151;52.030;5.350;2023-04-06T16:01:13;7.45;;;5.68;;
63965;SDS011;50151;52.030;5.350;2023-04-06T16:03:45;8.77;;;6.03;;
63965;SDS011;50151;52.030;5.350;2023-04-06T16:06:12;9.10;;;6.70;;
63965;SDS011;50151;52.030;5.350;2023-04-06T16:08:39;9.20;;;6.13;;
63965;SDS011;50151;52.030;5.350;2023-04-06T16:11:06;10.40;;;6.28;;
63965;SDS011;50151;52.030;5.350;2023-04-06T16:13:34;12.98;;;7.43;;
63965;SDS011;50151;52.030;5.350;2023-04-06T16:16:01;21.73;;;12.20;;
63965;SDS011;50151;52.030;5.350;2023-04-06T16:18:29;8.77;;;6.68;;
63965;SDS011;50151;52.030;5.350;2023-04-06T16:20:58;10.52;;;7.53;;
63965;SDS011;50151;52.030;5.350;2023-04-06T16:23:25;8.65;;;6.47;;
63965;SDS011;50151;52.030;5.350;2023-04-06T16:25:52;8.77;;;6.07;;
63965;SDS011;50151;52.030;5.350;2023-04-06T16:28:19;8.93;;;6.05;;
63965;SDS011;50151;52.030;5.350;2023-04-06T16:30:48;11.50;;;6.50;;
63965;SDS011;50151;52.030;5.350;2023-04-06T16:33:15;8.93;;;5.68;;
63965;SDS011;50151;52.030;5.350;2023-04-06T16:35:44;9.45;;;6.55;;
63965;SDS011;50151;52.030;5.350;2023-04-06T16:38:12;9.60;;;6.93;;
63965;SDS011;50151;52.030;5.350;2023-04-06T16:40:39;8.63;;;6.18;;
63965;SDS011;50151;52.030;5.350;2023-04-06T16:43:06;8.70;;;7.07;;
63965;SDS011;50151;52.030;5.350;2023-04-06T16:45:33;7.45;;;5.40;;
63965;SDS011;50151;52.030;5.350;2023-04-06T16:48:00;6.10;;;4.22;;
63965;SDS011;50151;52.030;5.350;2023-04-06T16:50:26;11.05;;;7.75;;
63965;SDS011;50151;52.030;5.350;2023-04-06T16:52:53;9.02;;;6.18;;
63965;SDS011;50151;52.030;5.350;2023-04-06T16:55:20;8.52;;;6.50;;
63965;SDS011;50151;52.030;5.350;2023-04-06T16:57:47;8.57;;;6.28;;
63965;SDS011;50151;52.030;5.350;2023-04-06T17:00:14;8.75;;;5.82;;
63965;SDS011;50151;52.030;5.350;2023-04-06T17:02:43;13.05;;;7.65;;
63965;SDS011;50151;52.030;5.350;2023-04-06T17:05:12;11.57;;;7.90;;
63965;SDS011;50151;52.030;5.350;2023-04-06T17:07:40;9.43;;;7.40;;
63965;SDS011;50151;52.030;5.350;2023-04-06T17:10:06;7.78;;;6.00;;
63965;SDS011;50151;52.030;5.350;2023-04-06T17:12:34;7.95;;;5.75;;
63965;SDS011;50151;52.030;5.350;2023-04-06T17:15:01;8.77;;;5.75;;
63965;SDS011;50151;52.030;5.350;2023-04-06T17:17:28;7.47;;;5.70;;
63965;SDS011;50151;52.030;5.350;2023-04-06T17:19:55;8.30;;;5.65;;
63965;SDS011;50151;52.030;5.350;2023-04-06T17:22:22;12.20;;;6.40;;
63965;SDS011;50151;52.030;5.350;2023-04-06T17:24:49;8.35;;;6.10;;
63965;SDS011;50151;52.030;5.350;2023-04-06T17:27:15;7.78;;;5.20;;
63965;SDS011;50151;52.030;5.350;2023-04-06T17:29:42;8.10;;;5.82;;
63965;SDS011;50151;52.030;5.350;2023-04-06T17:32:09;7.22;;;5.40;;
63965;SDS011;50151;52.030;5.350;2023-04-06T17:34:36;7.35;;;5.93;;
63965;SDS011;50151;52.030;5.350;2023-04-06T17:37:03;7.15;;;5.53;;
63965;SDS011;50151;52.030;5.350;2023-04-06T17:39:30;7.18;;;5.13;;
63965;SDS011;50151;52.030;5.350;2023-04-06T17:41:57;8.27;;;6.13;;
63965;SDS011;50151;52.030;5.350;2023-04-06T17:44:25;6.90;;;5.25;;
63965;SDS011;50151;52.030;5.350;2023-04-06T17:46:51;7.22;;;5.60;;
63965;SDS011;50151;52.030;5.350;2023-04-06T17:49:18;8.50;;;5.63;;
63965;SDS011;50151;52.030;5.350;2023-04-06T17:51:45;10.10;;;5.55;;
63965;SDS011;50151;52.030;5.350;2023-04-06T17:54:12;9.15;;;6.15;;
63965;SDS011;50151;52.030;5.350;2023-04-06T17:56:38;6.60;;;5.40;;
63965;SDS011;50151;52.030;5.350;2023-04-06T17:59:06;7.63;;;5.43;;
63965;SDS011;50151;52.030;5.350;2023-04-06T18:01:38;7.03;;;5.47;;
63965;SDS011;50151;52.030;5.350;2023-04-06T18:04:05;7.50;;;5.55;;
63965;SDS011;50151;52.030;5.350;2023-04-06T18:06:32;7.65;;;5.03;;
63965;SDS011;50151;52.030;5.350;2023-04-06T18:08:59;7.25;;;5.85;;
63965;SDS011;50151;52.030;5.350;2023-04-06T18:11:26;7.53;;;5.72;;
63965;SDS011;50151;52.030;5.350;2023-04-06T18:13:56;6.43;;;5.30;;
63965;SDS011;50151;52.030;5.350;2023-04-06T18:16:23;6.15;;;5.35;;
63965;SDS011;50151;52.030;5.350;2023-04-06T18:18:50;7.82;;;5.88;;
63965;SDS011;50151;52.030;5.350;2023-04-06T18:21:17;8.75;;;5.72;;
63965;SDS011;50151;52.030;5.350;2023-04-06T18:23:43;8.60;;;5.70;;
63965;SDS011;50151;52.030;5.350;2023-04-06T18:26:20;6.50;;;5.47;;
63965;SDS011;50151;52.030;5.350;2023-04-06T18:28:46;8.43;;;5.65;;
63965;SDS011;50151;52.030;5.350;2023-04-06T18:31:13;6.70;;;5.50;;
63965;SDS011;50151;52.030;5.350;2023-04-06T18:33:40;6.47;;;5.25;;
63965;SDS011;50151;52.030;5.350;2023-04-06T18:36:07;6.57;;;5.38;;
63965;SDS011;50151;52.030;5.350;2023-04-06T18:38:35;6.13;;;5.43;;
63965;SDS011;50151;52.030;5.350;2023-04-06T18:41:04;7.05;;;5.90;;
63965;SDS011;50151;52.030;5.350;2023-04-06T18:43:31;7.15;;;5.55;;
63965;SDS011;50151;52.030;5.350;2023-04-06T18:45:57;7.40;;;6.22;;
63965;SDS011;50151;52.030;5.350;2023-04-06T18:48:25;7.18;;;5.85;;
63965;SDS011;50151;52.030;5.350;2023-04-06T18:53:20;7.25;;;6.25;;
63965;SDS011;50151;52.030;5.350;2023-04-06T18:55:46;7.00;;;5.90;;
63965;SDS011;50151;52.030;5.350;2023-04-06T18:58:13;7.07;;;6.00;;
63965;SDS011;50151;52.030;5.350;2023-04-06T19:00:40;8.60;;;5.82;;
63965;SDS011;50151;52.030;5.350;2023-04-06T19:03:07;7.50;;;6.20;;
63965;SDS011;50151;52.030;5.350;2023-04-06T19:05:34;6.97;;;5.97;;
63965;SDS011;50151;52.030;5.350;2023-04-06T19:08:01;8.85;;;6.63;;
63965;SDS011;50151;52.030;5.350;2023-04-06T19:10:28;6.80;;;5.65;;
63965;SDS011;50151;52.030;5.350;2023-04-06T19:12:55;6.53;;;5.90;;
63965;SDS011;50151;52.030;5.350;2023-04-06T19:15:22;7.43;;;6.30;;
63965;SDS011;50151;52.030;5.350;2023-04-06T19:17:49;7.53;;;6.35;;
63965;SDS011;50151;52.030;5.350;2023-04-06T19:20:16;8.25;;;6.32;;
63965;SDS011;50151;52.030;5.350;2023-04-06T19:22:43;8.43;;;6.35;;
63965;SDS011;50151;52.030;5.350;2023-04-06T19:25:11;8.07;;;6.00;;
63965;SDS011;50151;52.030;5.350;2023-04-06T19:27:39;7.50;;;6.10;;
63965;SDS011;50151;52.030;5.350;2023-04-06T19:30:06;7.18;;;6.45;;
63965;SDS011;50151;52.030;5.350;2023-04-06T19:32:35;7.50;;;6.07;;
63965;SDS011;50151;52.030;5.350;2023-04-06T19:35:03;8.80;;;6.78;;
63965;SDS011;50151;52.030;5.350;2023-04-06T19:37:32;8.45;;;7.03;;
63965;SDS011;50151;52.030;5.350;2023-04-06T19:39:59;9.15;;;7.55;;
63965;SDS011;50151;52.030;5.350;2023-04-06T19:42:25;7.88;;;6.93;;
63965;SDS011;50151;52.030;5.350;2023-04-06T19:44:52;8.85;;;6.88;;
63965;SDS011;50151;52.030;5.350;2023-04-06T19:47:19;8.45;;;7.00;;
63965;SDS011;50151;52.030;5.350;2023-04-06T19:49:46;7.93;;;6.75;;
63965;SDS011;50151;52.030;5.350;2023-04-06T19:52:14;8.02;;;7.00;;
63965;SDS011;50151;52.030;5.350;2023-04-06T19:54:41;8.20;;;7.32;;
63965;SDS011;50151;52.030;5.350;2023-04-06T19:57:09;9.80;;;7.65;;
63965;SDS011;50151;52.030;5.350;2023-04-06T19:59:35;9.07;;;8.07;;
63965;SDS011;50151;52.030;5.350;2023-04-06T20:02:02;8.55;;;7.70;;
63965;SDS011;50151;52.030;5.350;2023-04-06T20:04:29;8.38;;;7.53;;
63965;SDS011;50151;52.030;5.350;2023-04-06T20:06:55;8.32;;;7.45;;
63965;SDS011;50151;52.030;5.350;2023-04-06T20:09:22;8.70;;;7.53;;
63965;SDS011;50151;52.030;5.350;2023-04-06T20:11:49;10.13;;;8.05;;
63965;SDS011;50151;52.030;5.350;2023-04-06T20:14:19;9.00;;;7.75;;
63965;SDS011;50151;52.030;5.350;2023-04-06T20:16:47;9.77;;;8.38;;
63965;SDS011;50151;52.030;5.350;2023-04-06T20:19:15;10.30;;;8.40;;
63965;SDS011;50151;52.030;5.350;2023-04-06T20:21:42;10.25;;;8.30;;
63965;SDS011;50151;52.030;5.350;2023-04-06T20:24:09;9.45;;;8.15;;
63965;SDS011;50151;52.030;5.350;2023-04-06T20:26:36;9.43;;;8.43;;
63965;SDS011;50151;52.030;5.350;2023-04-06T20:29:03;9.85;;;8.52;;
63965;SDS011;50151;52.030;5.350;2023-04-06T20:31:30;10.45;;;8.57;;
63965;SDS011;50151;52.030;5.350;2023-04-06T20:33:57;9.50;;;8.50;;
63965;SDS011;50151;52.030;5.350;2023-04-06T20:36:24;9.65;;;8.65;;
63965;SDS011;50151;52.030;5.350;2023-04-06T20:38:53;10.30;;;8.98;;
63965;SDS011;50151;52.030;5.350;2023-04-06T20:41:19;10.40;;;9.18;;
63965;SDS011;50151;52.030;5.350;2023-04-06T20:43:47;11.25;;;9.63;;